sensor_id;sensor_type;location;lat;lon;timestamp;pressure;altitude;pressure_sealevel;temperature;humidity
77881;BME280;67077;50.298;18.996;2023-03-14T00:01:58;96470.67;;;9.69;52.81
77881;BME280;67077;50.298;18.996;2023-03-14T00:04:29;96465.42;;;9.67;52.82
77881;BME280;67077;50.298;18.996;2023-03-14T00:06:56;96456.04;;;9.66;52.88
77881;BME280;67077;50.298;18.996;2023-03-14T00:09:23;96449.15;;;9.65;52.93
77881;BME280;67077;50.298;18.996;2023-03-14T00:11:50;96443.88;;;9.62;53.12
77881;BME280;67077;50.298;18.996;2023-03-14T00:14:21;96427.30;;;9.59;53.24
77881;BME280;67077;50.298;18.996;2023-03-14T00:17:01;96414.80;;;9.56;53.27
77881;BME280;67077;50.298;18.996;2023-03-14T00:19:32;96403.60;;;9.52;53.39
77881;BME280;67077;50.298;18.996;2023-03-14T00:21:58;96401.33;;;9.49;53.46
77881;BME280;67077;50.298;18.996;2023-03-14T00:24:28;96393.17;;;9.47;53.66
77881;BME280;67077;50.298;18.996;2023-03-14T00:27:04;96385.80;;;9.43;53.66
77881;BME280;67077;50.298;18.996;2023-03-14T00:29:31;96375.73;;;9.40;53.86
77881;BME280;67077;50.298;18.996;2023-03-14T00:32:08;96372.36;;;9.36;54.05
77881;BME280;67077;50.298;18.996;2023-03-14T00:34:55;96382.39;;;9.32;54.13
77881;BME280;67077;50.298;18.996;2023-03-14T00:37:27;96374.31;;;9.29;54.27
77881;BME280;67077;50.298;18.996;2023-03-14T00:39:58;96367.97;;;9.25;54.51
77881;BME280;67077;50.298;18.996;2023-03-14T00:42:25;96368.05;;;9.21;54.56
77881;BME280;67077;50.298;18.996;2023-03-14T00:44:55;96360.13;;;9.19;54.62
77881;BME280;67077;50.298;18.996;2023-03-14T00:47:23;96343.60;;;9.17;54.71
77881;BME280;67077;50.298;18.996;2023-03-14T00:49:50;96336.75;;;9.16;54.63
77881;BME280;67077;50.298;18.996;2023-03-14T00:52:17;96334.77;;;9.16;54.68
77881;BME280;67077;50.298;18.996;2023-03-14T00:54:44;96342.66;;;9.14;54.69
77881;BME280;67077;50.298;18.996;2023-03-14T00:57:11;96342.11;;;9.13;54.76
77881;BME280;67077;50.298;18.996;2023-03-14T00:59:40;96326.77;;;9.11;54.78
77881;BME280;67077;50.298;18.996;2023-03-14T01:02:07;96322.59;;;9.12;54.75
77881;BME280;67077;50.298;18.996;2023-03-14T01:04:34;96325.45;;;9.13;54.75
77881;BME280;67077;50.298;18.996;2023-03-14T01:07:01;96321.88;;;9.11;54.85
77881;BME280;67077;50.298;18.996;2023-03-14T01:09:28;96321.86;;;9.10;54.86
77881;BME280;67077;50.298;18.996;2023-03-14T01:11:54;96324.83;;;9.09;54.92
77881;BME280;67077;50.298;18.996;2023-03-14T01:14:21;96335.48;;;9.06;54.98
77881;BME280;67077;50.298;18.996;2023-03-14T01:16:48;96335.22;;;9.04;55.11
77881;BME280;67077;50.298;18.996;2023-03-14T01:19:14;96328.88;;;9.03;55.10
77881;BME280;67077;50.298;18.996;2023-03-14T01:21:42;96309.68;;;9.02;55.17
77881;BME280;67077;50.298;18.996;2023-03-14T01:24:11;96294.63;;;8.98;55.26
77881;BME280;67077;50.298;18.996;2023-03-14T01:26:53;96280.55;;;8.97;55.32
77881;BME280;67077;50.298;18.996;2023-03-14T01:29:23;96263.38;;;8.94;55.34
77881;BME280;67077;50.298;18.996;2023-03-14T01:31:51;96261.27;;;8.94;55.24
77881;BME280;67077;50.298;18.996;2023-03-14T01:39:54;96251.48;;;8.95;55.28
77881;BME280;67077;50.298;18.996;2023-03-14T01:42:22;96247.34;;;8.96;55.14
77881;BME280;67077;50.298;18.996;2023-03-14T01:47:39;96250.12;;;8.93;55.24
77881;BME280;67077;50.298;18.996;2023-03-14T01:50:11;96250.08;;;8.89;55.21
77881;BME280;67077;50.298;18.996;2023-03-14T01:52:50;96249.65;;;8.86;55.23
77881;BME280;67077;50.298;18.996;2023-03-14T01:55:24;96242.20;;;8.84;55.31
77881;BME280;67077;50.298;18.996;2023-03-14T01:58:00;96237.75;;;8.81;55.32
77881;BME280;67077;50.298;18.996;2023-03-14T02:00:28;96228.29;;;8.77;55.36
77881;BME280;67077;50.298;18.996;2023-03-14T02:03:00;96229.33;;;8.73;55.51
77881;BME280;67077;50.298;18.996;2023-03-14T02:05:32;96231.20;;;8.70;55.47
77881;BME280;67077;50.298;18.996;2023-03-14T02:08:02;96238.67;;;8.68;55.52
77881;BME280;67077;50.298;18.996;2023-03-14T02:10:34;96240.92;;;8.66;55.58
77881;BME280;67077;50.298;18.996;2023-03-14T02:13:05;96236.55;;;8.64;55.63
77881;BME280;67077;50.298;18.996;2023-03-14T02:15:36;96243.38;;;8.63;55.65
77881;BME280;67077;50.298;18.996;2023-03-14T02:18:06;96255.42;;;8.61;55.70
77881;BME280;67077;50.298;18.996;2023-03-14T02:23:51;96253.15;;;8.53;55.84
77881;BME280;67077;50.298;18.996;2023-03-14T02:26:31;96250.61;;;8.47;55.93
77881;BME280;67077;50.298;18.996;2023-03-14T02:29:02;96248.60;;;8.42;56.05
77881;BME280;67077;50.298;18.996;2023-03-14T02:31:32;96235.89;;;8.38;56.19
77881;BME280;67077;50.298;18.996;2023-03-14T02:34:02;96226.13;;;8.35;56.36
77881;BME280;67077;50.298;18.996;2023-03-14T02:36:32;96208.23;;;8.30;56.72
77881;BME280;67077;50.298;18.996;2023-03-14T02:39:21;96200.69;;;8.23;56.97
77881;BME280;67077;50.298;18.996;2023-03-14T02:41:55;96206.58;;;8.16;57.30
77881;BME280;67077;50.298;18.996;2023-03-14T02:44:22;96208.44;;;8.14;57.18
77881;BME280;67077;50.298;18.996;2023-03-14T02:46:51;96209.56;;;8.12;57.23
77881;BME280;67077;50.298;18.996;2023-03-14T02:49:38;96217.30;;;8.12;57.29
77881;BME280;67077;50.298;18.996;2023-03-14T02:52:10;96221.23;;;8.12;57.35
77881;BME280;67077;50.298;18.996;2023-03-14T02:54:37;96231.52;;;8.13;57.39
77881;BME280;67077;50.298;18.996;2023-03-14T02:57:04;96232.81;;;8.13;57.33
77881;BME280;67077;50.298;18.996;2023-03-14T02:59:32;96231.85;;;8.13;57.40
77881;BME280;67077;50.298;18.996;2023-03-14T03:02:00;96233.70;;;8.15;57.35
77881;BME280;67077;50.298;18.996;2023-03-14T03:04:30;96229.53;;;8.17;57.36
77881;BME280;67077;50.298;18.996;2023-03-14T03:06:59;96223.04;;;8.19;57.43
77881;BME280;67077;50.298;18.996;2023-03-14T03:09:29;96222.31;;;8.22;57.38
77881;BME280;67077;50.298;18.996;2023-03-14T03:11:57;96218.41;;;8.25;57.25
77881;BME280;67077;50.298;18.996;2023-03-14T03:14:28;96214.11;;;8.28;57.21
77881;BME280;67077;50.298;18.996;2023-03-14T03:16:56;96215.40;;;8.31;57.08
77881;BME280;67077;50.298;18.996;2023-03-14T03:19:24;96214.84;;;8.34;57.16
77881;BME280;67077;50.298;18.996;2023-03-14T03:21:52;96216.82;;;8.36;57.10
77881;BME280;67077;50.298;18.996;2023-03-14T03:24:21;96226.78;;;8.36;57.06
77881;BME280;67077;50.298;18.996;2023-03-14T03:26:51;96227.21;;;8.36;57.03
77881;BME280;67077;50.298;18.996;2023-03-14T03:29:19;96234.56;;;8.35;56.96
77881;BME280;67077;50.298;18.996;2023-03-14T03:31:49;96241.45;;;8.32;56.94
77881;BME280;67077;50.298;18.996;2023-03-14T03:34:17;96256.72;;;8.30;56.97
77881;BME280;67077;50.298;18.996;2023-03-14T03:36:45;96281.25;;;8.28;57.07
77881;BME280;67077;50.298;18.996;2023-03-14T03:39:13;96307.33;;;8.27;57.12
77881;BME280;67077;50.298;18.996;2023-03-14T03:41:40;96315.27;;;8.26;57.19
77881;BME280;67077;50.298;18.996;2023-03-14T03:44:08;96306.77;;;8.29;57.14
77881;BME280;67077;50.298;18.996;2023-03-14T03:46:35;96311.17;;;8.34;57.00
77881;BME280;67077;50.298;18.996;2023-03-14T03:49:03;96310.19;;;8.38;56.98
77881;BME280;67077;50.298;18.996;2023-03-14T03:51:30;96295.89;;;8.43;56.81
77881;BME280;67077;50.298;18.996;2023-03-14T03:53:58;96286.35;;;8.50;56.79
77881;BME280;67077;50.298;18.996;2023-03-14T03:56:26;96288.00;;;8.54;56.72
77881;BME280;67077;50.298;18.996;2023-03-14T03:58:55;96288.21;;;8.57;56.62
77881;BME280;67077;50.298;18.996;2023-03-14T04:01:24;96289.50;;;8.60;56.56
77881;BME280;67077;50.298;18.996;2023-03-14T04:03:56;96279.56;;;8.63;56.53
77881;BME280;67077;50.298;18.996;2023-03-14T04:06:24;96276.28;;;8.63;56.59
77881;BME280;67077;50.298;18.996;2023-03-14T04:08:54;96274.81;;;8.61;56.58
77881;BME280;67077;50.298;18.996;2023-03-14T04:11:22;96272.27;;;8.57;56.71
77881;BME280;67077;50.298;18.996;2023-03-14T04:13:50;96264.55;;;8.52;56.80
77881;BME280;67077;50.298;18.996;2023-03-14T04:16:23;96266.80;;;8.46;56.84
77881;BME280;67077;50.298;18.996;2023-03-14T04:18:54;96261.16;;;8.40;56.96
77881;BME280;67077;50.298;18.996;2023-03-14T04:21:23;96260.03;;;8.35;57.14
77881;BME280;67077;50.298;18.996;2023-03-14T04:23:52;96254.89;;;8.30;57.41
77881;BME280;67077;50.298;18.996;2023-03-14T04:26:21;96254.17;;;8.26;57.58
77881;BME280;67077;50.298;18.996;2023-03-14T04:28:55;96245.23;;;8.21;57.73
77881;BME280;67077;50.298;18.996;2023-03-14T04:31:23;96241.48;;;8.18;57.88
77881;BME280;67077;50.298;18.996;2023-03-14T04:33:53;96244.41;;;8.14;58.07
77881;BME280;67077;50.298;18.996;2023-03-14T04:36:23;96245.52;;;8.11;58.18
77881;BME280;67077;50.298;18.996;2023-03-14T04:38:54;96245.16;;;8.08;58.25
77881;BME280;67077;50.298;18.996;2023-03-14T04:41:22;96236.81;;;8.07;58.39
77881;BME280;67077;50.298;18.996;2023-03-14T04:43:50;96225.11;;;8.06;58.42
77881;BME280;67077;50.298;18.996;2023-03-14T04:46:18;96227.92;;;8.06;58.57
77881;BME280;67077;50.298;18.996;2023-03-14T04:48:51;96219.01;;;8.08;58.63
77881;BME280;67077;50.298;18.996;2023-03-14T04:51:20;96204.88;;;8.10;58.57
77881;BME280;67077;50.298;18.996;2023-03-14T04:53:50;96188.77;;;8.16;58.45
77881;BME280;67077;50.298;18.996;2023-03-14T04:56:20;96187.36;;;8.21;58.46
77881;BME280;67077;50.298;18.996;2023-03-14T04:58:49;96193.63;;;8.26;58.14
77881;BME280;67077;50.298;18.996;2023-03-14T05:01:17;96191.09;;;8.33;57.99
77881;BME280;67077;50.298;18.996;2023-03-14T05:03:45;96187.60;;;8.38;57.98
77881;BME280;67077;50.298;18.996;2023-03-14T05:06:16;96187.96;;;8.41;57.76
77881;BME280;67077;50.298;18.996;2023-03-14T05:08:46;96180.80;;;8.46;57.52
77881;BME280;67077;50.298;18.996;2023-03-14T05:11:17;96171.92;;;8.50;57.37
77881;BME280;67077;50.298;18.996;2023-03-14T05:13:52;96163.63;;;8.56;57.03
77881;BME280;67077;50.298;18.996;2023-03-14T05:16:33;96164.14;;;8.63;56.84
77881;BME280;67077;50.298;18.996;2023-03-14T05:19:38;96161.44;;;8.68;56.64
77881;BME280;67077;50.298;18.996;2023-03-14T05:22:42;96158.93;;;8.75;56.43
77881;BME280;67077;50.298;18.996;2023-03-14T05:28:57;96159.39;;;8.85;56.12
77881;BME280;67077;50.298;18.996;2023-03-14T05:31:47;96152.70;;;8.88;56.02
77881;BME280;67077;50.298;18.996;2023-03-14T05:34:47;96146.81;;;8.92;55.88
77881;BME280;67077;50.298;18.996;2023-03-14T05:48:46;96161.04;;;9.14;55.21
77881;BME280;67077;50.298;18.996;2023-03-14T05:51:14;96156.71;;;9.19;55.24
77881;BME280;67077;50.298;18.996;2023-03-14T05:53:42;96156.16;;;9.22;55.27
77881;BME280;67077;50.298;18.996;2023-03-14T05:56:10;96149.23;;;9.27;54.97
77881;BME280;67077;50.298;18.996;2023-03-14T05:58:38;96149.64;;;9.32;55.05
77881;BME280;67077;50.298;18.996;2023-03-14T06:01:08;96140.79;;;9.35;54.92
77881;BME280;67077;50.298;18.996;2023-03-14T06:03:37;96132.25;;;9.40;54.72
77881;BME280;67077;50.298;18.996;2023-03-14T06:06:10;96131.41;;;9.45;54.70
77881;BME280;67077;50.298;18.996;2023-03-14T06:08:43;96121.98;;;9.48;54.63
77881;BME280;67077;50.298;18.996;2023-03-14T06:11:13;96119.55;;;9.52;54.26
77881;BME280;67077;50.298;18.996;2023-03-14T06:13:46;96125.08;;;9.58;54.29
77881;BME280;67077;50.298;18.996;2023-03-14T06:16:15;96119.80;;;9.62;54.23
77881;BME280;67077;50.298;18.996;2023-03-14T06:18:48;96130.08;;;9.65;54.09
77881;BME280;67077;50.298;18.996;2023-03-14T06:21:16;96124.81;;;9.68;54.12
77881;BME280;67077;50.298;18.996;2023-03-14T06:23:50;96119.54;;;9.71;54.02
77881;BME280;67077;50.298;18.996;2023-03-14T06:26:23;96116.69;;;9.73;54.14
77881;BME280;67077;50.298;18.996;2023-03-14T06:28:50;96111.58;;;9.75;53.91
77881;BME280;67077;50.298;18.996;2023-03-14T06:31:17;96104.63;;;9.78;53.88
77881;BME280;67077;50.298;18.996;2023-03-14T06:33:44;96104.36;;;9.79;53.91
77881;BME280;67077;50.298;18.996;2023-03-14T06:36:10;96101.42;;;9.81;53.84
77881;BME280;67077;50.298;18.996;2023-03-14T06:38:38;96102.29;;;9.81;53.92
77881;BME280;67077;50.298;18.996;2023-03-14T06:41:06;96096.02;;;9.82;53.92
77881;BME280;67077;50.298;18.996;2023-03-14T06:43:33;96088.52;;;9.82;53.98
77881;BME280;67077;50.298;18.996;2023-03-14T06:45:59;96082.65;;;9.83;54.09
77881;BME280;67077;50.298;18.996;2023-03-14T06:48:26;96077.09;;;9.84;53.97
77881;BME280;67077;50.298;18.996;2023-03-14T06:50:54;96082.87;;;9.86;54.07
77881;BME280;67077;50.298;18.996;2023-03-14T06:53:21;96080.13;;;9.89;53.95
77881;BME280;67077;50.298;18.996;2023-03-14T06:55:48;96076.52;;;9.94;53.85
77881;BME280;67077;50.298;18.996;2023-03-14T06:58:15;96074.77;;;9.98;53.77
77881;BME280;67077;50.298;18.996;2023-03-14T07:00:41;96076.40;;;10.03;53.70
77881;BME280;67077;50.298;18.996;2023-03-14T07:03:14;96075.98;;;10.09;53.60
77881;BME280;67077;50.298;18.996;2023-03-14T07:05:41;96069.64;;;10.15;53.31
77881;BME280;67077;50.298;18.996;2023-03-14T07:08:11;96073.02;;;10.21;53.12
77881;BME280;67077;50.298;18.996;2023-03-14T07:10:38;96080.52;;;10.27;53.05
77881;BME280;67077;50.298;18.996;2023-03-14T07:13:05;96089.48;;;10.32;53.13
77881;BME280;67077;50.298;18.996;2023-03-14T07:15:32;96094.40;;;10.38;52.77
77881;BME280;67077;50.298;18.996;2023-03-14T07:17:59;96087.52;;;10.43;52.57
77881;BME280;67077;50.298;18.996;2023-03-14T07:20:26;96080.17;;;10.46;52.05
77881;BME280;67077;50.298;18.996;2023-03-14T07:22:53;96093.95;;;10.51;52.22
77881;BME280;67077;50.298;18.996;2023-03-14T07:25:20;96105.14;;;10.56;51.93
77881;BME280;67077;50.298;18.996;2023-03-14T07:27:47;96107.64;;;10.61;51.96
77881;BME280;67077;50.298;18.996;2023-03-14T07:30:19;96100.30;;;10.68;51.82
77881;BME280;67077;50.298;18.996;2023-03-14T07:32:46;96098.36;;;10.74;51.77
77881;BME280;67077;50.298;18.996;2023-03-14T07:35:14;96112.21;;;10.81;51.94
77881;BME280;67077;50.298;18.996;2023-03-14T07:37:41;96124.70;;;10.91;51.64
77881;BME280;67077;50.298;18.996;2023-03-14T07:40:08;96121.13;;;11.00;51.41
77881;BME280;67077;50.298;18.996;2023-03-14T07:42:38;96116.45;;;11.08;51.35
77881;BME280;67077;50.298;18.996;2023-03-14T07:45:05;96122.77;;;11.17;51.08
77881;BME280;67077;50.298;18.996;2023-03-14T07:47:32;96126.49;;;11.26;51.23
77881;BME280;67077;50.298;18.996;2023-03-14T07:49:58;96124.39;;;11.35;51.56
77881;BME280;67077;50.298;18.996;2023-03-14T07:52:26;96119.29;;;11.43;50.68
77881;BME280;67077;50.298;18.996;2023-03-14T07:54:53;96123.33;;;11.48;50.29
77881;BME280;67077;50.298;18.996;2023-03-14T07:57:19;96120.59;;;11.52;49.95
77881;BME280;67077;50.298;18.996;2023-03-14T07:59:46;96122.13;;;11.58;49.88
77881;BME280;67077;50.298;18.996;2023-03-14T08:02:15;96116.98;;;11.64;49.72
77881;BME280;67077;50.298;18.996;2023-03-14T08:04:42;96112.85;;;11.72;49.79
77881;BME280;67077;50.298;18.996;2023-03-14T08:07:09;96103.98;;;11.80;49.33
77881;BME280;67077;50.298;18.996;2023-03-14T08:09:36;96108.98;;;11.87;49.33
77881;BME280;67077;50.298;18.996;2023-03-14T08:12:02;96124.89;;;11.96;49.33
77881;BME280;67077;50.298;18.996;2023-03-14T08:14:29;96127.83;;;12.05;48.86
77881;BME280;67077;50.298;18.996;2023-03-14T08:16:57;96127.59;;;12.12;49.04
77881;BME280;67077;50.298;18.996;2023-03-14T08:19:23;96129.06;;;12.23;49.00
77881;BME280;67077;50.298;18.996;2023-03-14T08:21:51;96126.37;;;12.33;48.61
77881;BME280;67077;50.298;18.996;2023-03-14T08:24:18;96134.15;;;12.37;48.14
77881;BME280;67077;50.298;18.996;2023-03-14T08:26:44;96137.23;;;12.42;47.99
77881;BME280;67077;50.298;18.996;2023-03-14T08:29:11;96139.86;;;12.46;47.88
77881;BME280;67077;50.298;18.996;2023-03-14T08:31:39;96134.90;;;12.49;47.94
77881;BME280;67077;50.298;18.996;2023-03-14T08:34:06;96132.33;;;12.55;48.02
77881;BME280;67077;50.298;18.996;2023-03-14T08:36:33;96127.81;;;12.60;47.91
77881;BME280;67077;50.298;18.996;2023-03-14T08:39:00;96124.44;;;12.63;47.76
77881;BME280;67077;50.298;18.996;2023-03-14T08:41:26;96125.95;;;12.69;47.99
77881;BME280;67077;50.298;18.996;2023-03-14T08:43:53;96126.48;;;12.74;47.56
77881;BME280;67077;50.298;18.996;2023-03-14T08:46:20;96132.14;;;12.77;47.59
77881;BME280;67077;50.298;18.996;2023-03-14T08:48:48;96138.45;;;12.84;47.67
77881;BME280;67077;50.298;18.996;2023-03-14T08:51:15;96130.10;;;12.91;47.79
77881;BME280;67077;50.298;18.996;2023-03-14T08:53:43;96130.10;;;12.99;47.54
77881;BME280;67077;50.298;18.996;2023-03-14T08:56:09;96130.80;;;13.02;47.24
77881;BME280;67077;50.298;18.996;2023-03-14T08:58:37;96133.02;;;13.00;46.97
77881;BME280;67077;50.298;18.996;2023-03-14T09:01:05;96129.77;;;12.94;47.25
77881;BME280;67077;50.298;18.996;2023-03-14T09:03:33;96135.93;;;12.88;47.64
77881;BME280;67077;50.298;18.996;2023-03-14T09:06:05;96141.63;;;12.84;47.63
77881;BME280;67077;50.298;18.996;2023-03-14T09:08:32;96144.86;;;12.81;47.93
77881;BME280;67077;50.298;18.996;2023-03-14T09:11:07;96148.73;;;12.79;48.06
77881;BME280;67077;50.298;18.996;2023-03-14T09:13:34;96154.48;;;12.79;48.26
77881;BME280;67077;50.298;18.996;2023-03-14T09:16:00;96152.67;;;12.80;48.36
77881;BME280;67077;50.298;18.996;2023-03-14T09:18:27;96160.92;;;12.81;48.22
77881;BME280;67077;50.298;18.996;2023-03-14T09:20:55;96167.32;;;12.81;48.32
77881;BME280;67077;50.298;18.996;2023-03-14T09:23:22;96173.05;;;12.82;48.32
77881;BME280;67077;50.298;18.996;2023-03-14T09:25:54;96170.45;;;12.82;48.48
77881;BME280;67077;50.298;18.996;2023-03-14T09:28:21;96170.63;;;12.80;48.30
77881;BME280;67077;50.298;18.996;2023-03-14T09:30:49;96173.48;;;12.75;48.40
77881;BME280;67077;50.298;18.996;2023-03-14T09:33:16;96175.84;;;12.70;48.51
77881;BME280;67077;50.298;18.996;2023-03-14T09:35:43;96171.83;;;12.66;48.86
77881;BME280;67077;50.298;18.996;2023-03-14T09:38:10;96154.45;;;12.65;49.01
77881;BME280;67077;50.298;18.996;2023-03-14T09:40:37;96156.70;;;12.69;49.15
77881;BME280;67077;50.298;18.996;2023-03-14T09:43:10;96160.14;;;12.76;48.93
77881;BME280;67077;50.298;18.996;2023-03-14T09:45:42;96154.23;;;12.82;48.65
77881;BME280;67077;50.298;18.996;2023-03-14T09:48:20;96159.62;;;12.90;48.53
77881;BME280;67077;50.298;18.996;2023-03-14T09:50:55;96164.92;;;13.00;48.26
77881;BME280;67077;50.298;18.996;2023-03-14T09:53:33;96167.66;;;13.12;48.36
77881;BME280;67077;50.298;18.996;2023-03-14T09:56:01;96169.05;;;13.33;48.38
77881;BME280;67077;50.298;18.996;2023-03-14T09:58:29;96173.73;;;13.57;47.76
77881;BME280;67077;50.298;18.996;2023-03-14T10:00:58;96183.48;;;13.74;47.11
77881;BME280;67077;50.298;18.996;2023-03-14T10:03:36;96174.48;;;13.85;46.86
77881;BME280;67077;50.298;18.996;2023-03-14T10:06:14;96172.80;;;13.88;46.48
77881;BME280;67077;50.298;18.996;2023-03-14T10:08:42;96193.59;;;13.89;46.59
77881;BME280;67077;50.298;18.996;2023-03-14T10:11:17;96188.17;;;13.84;46.51
77881;BME280;67077;50.298;18.996;2023-03-14T10:16:44;96185.58;;;13.56;46.79
77881;BME280;67077;50.298;18.996;2023-03-14T10:19:14;96187.65;;;13.42;47.11
77881;BME280;67077;50.298;18.996;2023-03-14T10:21:43;96196.30;;;13.32;47.57
77881;BME280;67077;50.298;18.996;2023-03-14T10:24:19;96203.90;;;13.25;47.97
77881;BME280;67077;50.298;18.996;2023-03-14T10:26:57;96206.55;;;13.18;48.21
77881;BME280;67077;50.298;18.996;2023-03-14T10:29:24;96206.36;;;13.09;48.44
77881;BME280;67077;50.298;18.996;2023-03-14T10:31:54;96199.67;;;13.00;48.76
77881;BME280;67077;50.298;18.996;2023-03-14T10:34:39;96201.69;;;12.92;49.11
77881;BME280;67077;50.298;18.996;2023-03-14T10:37:22;96203.52;;;12.84;49.43
77881;BME280;67077;50.298;18.996;2023-03-14T10:39:53;96195.89;;;12.73;49.81
77881;BME280;67077;50.298;18.996;2023-03-14T10:42:24;96196.48;;;12.62;50.17
77881;BME280;67077;50.298;18.996;2023-03-14T10:45:03;96197.33;;;12.52;50.72
77881;BME280;67077;50.298;18.996;2023-03-14T10:47:32;96199.48;;;12.44;51.26
77881;BME280;67077;50.298;18.996;2023-03-14T10:50:29;96195.91;;;12.38;51.57
77881;BME280;67077;50.298;18.996;2023-03-14T10:53:02;96191.62;;;12.31;51.84
77881;BME280;67077;50.298;18.996;2023-03-14T10:55:43;96192.17;;;12.28;52.11
77881;BME280;67077;50.298;18.996;2023-03-14T10:58:28;96194.92;;;12.24;52.05
77881;BME280;67077;50.298;18.996;2023-03-14T11:01:09;96196.93;;;12.24;52.25
77881;BME280;67077;50.298;18.996;2023-03-14T11:03:43;96193.36;;;12.24;52.03
77881;BME280;67077;50.298;18.996;2023-03-14T11:06:20;96199.16;;;12.22;52.17
77881;BME280;67077;50.298;18.996;2023-03-14T11:09:02;96197.50;;;12.19;52.06
77881;BME280;67077;50.298;18.996;2023-03-14T11:11:32;96192.70;;;12.16;52.09
77881;BME280;67077;50.298;18.996;2023-03-14T11:14:08;96199.42;;;12.12;52.20
77881;BME280;67077;50.298;18.996;2023-03-14T11:16:52;96195.80;;;12.06;52.32
77881;BME280;67077;50.298;18.996;2023-03-14T11:30:53;96203.73;;;11.75;54.19
77881;BME280;67077;50.298;18.996;2023-03-14T11:36:26;96196.17;;;11.64;55.17
77881;BME280;67077;50.298;18.996;2023-03-14T11:38:57;96188.59;;;11.57;55.59
77881;BME280;67077;50.298;18.996;2023-03-14T11:41:37;96192.50;;;11.50;55.99
77881;BME280;67077;50.298;18.996;2023-03-14T11:44:17;96193.23;;;11.46;56.37
77881;BME280;67077;50.298;18.996;2023-03-14T11:47:19;96194.23;;;11.42;56.68
77881;BME280;67077;50.298;18.996;2023-03-14T11:52:36;96197.79;;;11.32;56.89
77881;BME280;67077;50.298;18.996;2023-03-14T11:55:09;96200.05;;;11.27;57.03
77881;BME280;67077;50.298;18.996;2023-03-14T11:57:37;96207.85;;;11.22;57.28
77881;BME280;67077;50.298;18.996;2023-03-14T12:00:21;96202.39;;;11.22;57.25
77881;BME280;67077;50.298;18.996;2023-03-14T12:05:46;96194.81;;;11.24;57.50
77881;BME280;67077;50.298;18.996;2023-03-14T12:11:17;96184.31;;;11.28;57.56
77881;BME280;67077;50.298;18.996;2023-03-14T12:13:49;96181.39;;;11.28;57.45
77881;BME280;67077;50.298;18.996;2023-03-14T12:16:31;96176.91;;;11.27;57.26
77881;BME280;67077;50.298;18.996;2023-03-14T12:19:13;96181.13;;;11.23;57.41
77881;BME280;67077;50.298;18.996;2023-03-14T12:21:51;96182.60;;;11.23;57.53
77881;BME280;67077;50.298;18.996;2023-03-14T12:24:23;96179.95;;;11.20;57.42
77881;BME280;67077;50.298;18.996;2023-03-14T12:27:02;96185.89;;;11.18;57.51
77881;BME280;67077;50.298;18.996;2023-03-14T12:29:30;96193.61;;;11.15;57.48
77881;BME280;67077;50.298;18.996;2023-03-14T12:34:41;96186.85;;;11.10;57.67
77881;BME280;67077;50.298;18.996;2023-03-14T12:42:05;96189.53;;;11.00;58.00
77881;BME280;67077;50.298;18.996;2023-03-14T12:44:40;96187.42;;;10.98;58.28
77881;BME280;67077;50.298;18.996;2023-03-14T12:49:44;96172.50;;;10.99;58.99
77881;BME280;67077;50.298;18.996;2023-03-14T12:52:17;96174.06;;;11.01;59.20
77881;BME280;67077;50.298;18.996;2023-03-14T13:00:18;96160.73;;;11.04;59.57
77881;BME280;67077;50.298;18.996;2023-03-14T13:02:47;96165.55;;;11.06;59.57
77881;BME280;67077;50.298;18.996;2023-03-14T13:13:01;96167.33;;;11.11;59.90
77881;BME280;67077;50.298;18.996;2023-03-14T13:15:40;96159.48;;;11.11;60.03
77881;BME280;67077;50.298;18.996;2023-03-14T13:18:19;96160.19;;;11.06;60.33
77881;BME280;67077;50.298;18.996;2023-03-14T13:20:53;96160.09;;;11.04;60.63
77881;BME280;67077;50.298;18.996;2023-03-14T13:23:24;96162.88;;;11.01;60.92
77881;BME280;67077;50.298;18.996;2023-03-14T13:25:51;96165.04;;;10.96;61.34
77881;BME280;67077;50.298;18.996;2023-03-14T13:28:18;96163.63;;;10.89;61.78
77881;BME280;67077;50.298;18.996;2023-03-14T13:30:47;96162.58;;;10.84;62.12
77881;BME280;67077;50.298;18.996;2023-03-14T13:33:17;96160.85;;;10.80;62.60
77881;BME280;67077;50.298;18.996;2023-03-14T13:36:05;96175.71;;;10.78;62.79
77881;BME280;67077;50.298;18.996;2023-03-14T13:38:35;96187.71;;;10.76;63.02
77881;BME280;67077;50.298;18.996;2023-03-14T13:41:06;96191.38;;;10.72;63.27
77881;BME280;67077;50.298;18.996;2023-03-14T13:43:39;96191.25;;;10.69;63.43
77881;BME280;67077;50.298;18.996;2023-03-14T13:48:35;96188.20;;;10.64;63.74
77881;BME280;67077;50.298;18.996;2023-03-14T13:51:09;96187.40;;;10.61;64.34
77881;BME280;67077;50.298;18.996;2023-03-14T13:53:51;96195.61;;;10.61;64.40
77881;BME280;67077;50.298;18.996;2023-03-14T13:56:23;96193.19;;;10.62;64.73
77881;BME280;67077;50.298;18.996;2023-03-14T13:58:51;96192.42;;;10.59;65.05
77881;BME280;67077;50.298;18.996;2023-03-14T14:01:21;96196.66;;;10.54;65.20
77881;BME280;67077;50.298;18.996;2023-03-14T14:03:51;96195.19;;;10.52;65.39
77881;BME280;67077;50.298;18.996;2023-03-14T14:06:33;96195.67;;;10.47;65.81
77881;BME280;67077;50.298;18.996;2023-03-14T14:09:12;96197.39;;;10.42;66.37
77881;BME280;67077;50.298;18.996;2023-03-14T14:11:59;96200.00;;;10.39;66.71
77881;BME280;67077;50.298;18.996;2023-03-14T14:14:32;96197.89;;;10.37;66.96
77881;BME280;67077;50.298;18.996;2023-03-14T14:17:01;96196.10;;;10.33;67.23
77881;BME280;67077;50.298;18.996;2023-03-14T14:19:33;96192.69;;;10.30;67.61
77881;BME280;67077;50.298;18.996;2023-03-14T14:22:01;96193.01;;;10.27;67.89
77881;BME280;67077;50.298;18.996;2023-03-14T14:24:30;96184.53;;;10.28;67.96
77881;BME280;67077;50.298;18.996;2023-03-14T14:27:09;96187.52;;;10.33;67.98
77881;BME280;67077;50.298;18.996;2023-03-14T14:29:36;96189.19;;;10.36;68.13
77881;BME280;67077;50.298;18.996;2023-03-14T14:34:46;96165.89;;;10.42;68.18
77881;BME280;67077;50.298;18.996;2023-03-14T14:37:33;96162.17;;;10.45;68.19